Innset, Norway

6:38 PM CET on February 24, 2017 (GMT +0100)
Bardu | | Change Station

Elev 1663 ft 68.66 °N, 18.88 °E | Updated 8 minutes ago

Partly Cloudy
Partly Cloudy
16.6 °F
Feels Like 7 °F
N
7.0
Wind Variable Wind from West
Gusts 12.0 mph

Today
High -- | Low -- °F
--% Chance of Precip.
Yesterday
High -- | Low -- °F
Precip. -- in
Pressure 29.33 in
Visibility 6.2 miles
Clouds Few 3000 ft
Scattered Clouds 4000 ft
Windchill 7 °F
Dew Point 14 °F
Humidity 91%
Rainfall 0.00 in
Snow Depth Not available.
7:27 AM 4:29 PM
Waning Crescent, 4% visible
METAR ENDU 241720Z VRB03KT 9999 FEW030 SCT040 M09/M10 Q0993 TEMPO 2000 SHSN VV009 RMK
Pressure 29.33 in
Visibility 6.2 miles
Clouds Few 3000 ft
Scattered Clouds 4000 ft
Windchill 7 °F
Dew Point 14 °F
Humidity 91%
Rainfall 0.00 in
Snow Depth Not available.
7:27 AM 4:29 PM
Waning Crescent, 4% visible
METAR ENDU 241720Z VRB03KT 9999 FEW030 SCT040 M09/M10 Q0993 TEMPO 2000 SHSN VV009 RMK

Get Your Daily Forecast Email!

Thanks for signing up!

Be on the lookout for a verification email in your inbox.

You'll start receiving the daily forecast at 8 AM.

×

10-Day Weather Forecast

×

Almanac

Astronomy

Feb. 24, 2017 Rise Set
Actual Time
Civil Twilight
Nautical Twilight
Astronomical Twilight
Moon
Length of Visible Light
Length of Day
Tomorrow will be .
, % of the Moon is Illuminated

Today's Extremes

Country Highs Country Lows

Community

WunderPhotos

Upload Photos

1,962,540 photos uploaded!

WunderBlog® & News

Nearby

Air Quality

  Air Quality AQ Index Pollutant
Not available.

Snow Depth

Station Depth Elevation

Earthquake Activity

City Distance Mag. Time & Date
Minimum magnitude displayed is 2.5.

Coastal Water Temperatures

Place Temperature

Stations

Nearby Weather Stations

Station Location Temp. Windchill Dew Point Humidity Wind Precip. Elev Updated Type